^^
Saratoga-Weather Station Historical Data
Daily Summary for August 16, 2021 Units:  Both    English   Metric
Daily Weekly Monthly Yearly Custom
  High: Low: Average:
Temperature: 51.8 °F /  11 °C 48.6 °F /  9.2 °C 50 °F /  10 °C
Dew Point: 48.7 °F /  9.3 °C 46.6 °F /  8.1 °C 47.7 °F /  8.7 °C
Humidity: 94% 89% 91%
Wind Speed: 2mph /  3.2km/h - 0.4mph /  0.7km/h
Wind Gust: 3mph /  4.8km/h - -
Wind- - South
Pressure: 30.1 in /  1020.7 hPa 30.1 in /  1020.3 hPa -
Precipitation: 0 in /  0.0 mm    
Historical Graphs
 
 
Tabular Data for August 16, 2021
Time Temperature Dew Point Pressure Wind Wind Speed Wind Gust Humidity Rainfall Rate (Hourly) solar
00:02 51.8 °F /  11 °C 48.7 °F /  9.3 °C 30.1in /  1020.3hPa Calm   3mph /  4.8km/h 89% 0in /  0.0mm 0 W/m2
00:07 51.4 °F /  10.8 °C 48.4 °F /  9.1 °C 30.1in /  1020.3hPa Calm   1mph /  1.6km/h 89% 0in /  0.0mm 0 W/m2
00:12 51.4 °F /  10.8 °C 48.6 °F /  9.2 °C 30.1in /  1020.7hPa Calm   3mph /  4.8km/h 90% 0in /  0.0mm 0 W/m2
00:17 51.3 °F /  10.7 °C 48.4 °F /  9.1 °C 30.1in /  1020.7hPa ESE 0.9mph /  1.4km/h 2mph /  3.2km/h 90% 0in /  0.0mm 0 W/m2
00:22 51.3 °F /  10.7 °C 48.4 °F /  9.1 °C 30.1in /  1020.7hPa Calm     90% 0in /  0.0mm 0 W/m2
00:27 51.3 °F /  10.7 °C 48.4 °F /  9.1 °C 30.1in /  1020.3hPa Calm   1mph /  1.6km/h 90% 0in /  0.0mm 0 W/m2
00:32 51.1 °F /  10.6 °C 48.2 °F /  9 °C 30.1in /  1020.3hPa Calm   1mph /  1.6km/h 90% 0in /  0.0mm 0 W/m2
00:37 50.9 °F /  10.5 °C 48 °F /  8.9 °C 30.1in /  1020.3hPa Calm   2mph /  3.2km/h 90% 0in /  0.0mm 0 W/m2
00:42 50.7 °F /  10.4 °C 48.2 °F /  9 °C 30.1in /  1020.7hPa Calm   1mph /  1.6km/h 91% 0in /  0.0mm 0 W/m2
00:47 50.7 °F /  10.4 °C 48.2 °F /  9 °C 30.1in /  1020.7hPa Calm   2mph /  3.2km/h 91% 0in /  0.0mm 0 W/m2
00:52 50.5 °F /  10.3 °C 48 °F /  8.9 °C 30.1in /  1020.3hPa NNW 0.9mph /  1.4km/h 2mph /  3.2km/h 91% 0in /  0.0mm 0 W/m2
00:57 50.5 °F /  10.3 °C 48 °F /  8.9 °C 30.1in /  1020.3hPa Calm   2mph /  3.2km/h 91% 0in /  0.0mm 0 W/m2
01:02 50.5 °F /  10.3 °C 48 °F /  8.9 °C 30.1in /  1020.7hPa NE 0.9mph /  1.4km/h 1mph /  1.6km/h 91% 0in /  0.0mm 0 W/m2
01:07 50.4 °F /  10.2 °C 47.8 °F /  8.8 °C 30.1in /  1020.7hPa NE 0.9mph /  1.4km/h 2mph /  3.2km/h 91% 0in /  0.0mm 0 W/m2
01:12 50 °F /  10 °C 47.5 °F /  8.6 °C 30.1in /  1020.3hPa Calm   1mph /  1.6km/h 91% 0in /  0.0mm 0 W/m2
01:17 49.8 °F /  9.9 °C 47.7 °F /  8.7 °C 30.1in /  1020.3hPa East 2mph /  3.2km/h 3mph /  4.8km/h 92% 0in /  0.0mm 0 W/m2
01:22 49.8 °F /  9.9 °C 47.7 °F /  8.7 °C 30.1in /  1020.3hPa Calm   1mph /  1.6km/h 92% 0in /  0.0mm 0 W/m2
01:27 49.6 °F /  9.8 °C 47.5 °F /  8.6 °C 30.1in /  1020.3hPa Calm   2mph /  3.2km/h 92% 0in /  0.0mm 0 W/m2
01:32 49.6 °F /  9.8 °C 47.5 °F /  8.6 °C 30.1in /  1020.3hPa Calm   2mph /  3.2km/h 92% 0in /  0.0mm 0 W/m2
01:37 49.6 °F /  9.8 °C 47.5 °F /  8.6 °C 30.1in /  1020.3hPa Calm   2mph /  3.2km/h 92% 0in /  0.0mm 0 W/m2
01:42 49.5 °F /  9.7 °C 47.3 °F /  8.5 °C 30.1in /  1020.3hPa SSW 0.9mph /  1.4km/h 1mph /  1.6km/h 92% 0in /  0.0mm 0 W/m2
01:47 49.5 °F /  9.7 °C 47.3 °F /  8.5 °C 30.1in /  1020.3hPa Calm   1mph /  1.6km/h 92% 0in /  0.0mm 0 W/m2
01:52 49.1 °F /  9.5 °C 46.9 °F /  8.3 °C 30.1in /  1020.7hPa Calm     92% 0in /  0.0mm 0 W/m2
01:57 48.7 °F /  9.3 °C 46.6 °F /  8.1 °C 30.1in /  1020.7hPa Calm     92% 0in /  0.0mm 0 W/m2
02:02 48.6 °F /  9.2 °C 46.6 °F /  8.1 °C 30.1in /  1020.7hPa NW 2mph /  3.2km/h 2mph /  3.2km/h 93% 0in /  0.0mm 0 W/m2
02:07 48.6 °F /  9.2 °C 46.6 °F /  8.1 °C 30.1in /  1020.7hPa WNW 0.9mph /  1.4km/h 1mph /  1.6km/h 93% 0in /  0.0mm 0 W/m2
02:12 48.6 °F /  9.2 °C 46.6 °F /  8.1 °C 30.1in /  1020.7hPa NW 0.9mph /  1.4km/h 3mph /  4.8km/h 93% 0in /  0.0mm 0 W/m2
02:17 48.6 °F /  9.2 °C 46.6 °F /  8.1 °C 30.1in /  1020.7hPa NE 0.9mph /  1.4km/h 2mph /  3.2km/h 93% 0in /  0.0mm 0 W/m2
02:22 48.6 °F /  9.2 °C 46.9 °F /  8.3 °C 30.1in /  1020.7hPa West 2mph /  3.2km/h 2mph /  3.2km/h 94% 0in /  0.0mm 0 W/m2
02:27 48.6 °F /  9.2 °C 46.9 °F /  8.3 °C 30.1in /  1020.7hPa Calm     94% 0in /  0.0mm 0 W/m2
Juneau County Weather
Compliments of Weather Underground - 2 mb